createdAt,value
2019-05-25T00:00:11.739Z,58.20
2019-05-25T00:02:40.829Z,58.00
2019-05-25T00:05:10.043Z,57.90
2019-05-25T00:07:39.105Z,58.20
2019-05-25T00:10:08.391Z,58.20
2019-05-25T00:12:37.219Z,58.00
2019-05-25T00:15:06.664Z,58.40
2019-05-25T00:17:35.814Z,58.70
2019-05-25T00:20:05.339Z,58.70
2019-05-25T00:22:34.167Z,59.30
2019-05-25T00:25:02.982Z,58.90
2019-05-25T00:27:31.810Z,59.40
2019-05-25T00:30:01.004Z,59.70
2019-05-25T00:32:29.903Z,60.00
2019-05-25T00:34:58.816Z,60.00
2019-05-25T00:37:27.779Z,60.50
2019-05-25T00:39:56.683Z,60.50
2019-05-25T00:42:25.562Z,60.10
2019-05-25T00:44:54.474Z,60.70
2019-05-25T00:47:23.360Z,60.90
2019-05-25T00:49:52.243Z,61.10
2019-05-25T00:52:21.151Z,61.40
2019-05-25T00:54:50.076Z,61.00
2019-05-25T00:57:19.000Z,62.40
2019-05-25T00:59:48.028Z,62.80
2019-05-25T01:02:16.984Z,62.70
2019-05-25T01:04:46.022Z,63.20
2019-05-25T01:07:15.021Z,63.40
2019-05-25T01:09:44.030Z,64.40
2019-05-25T01:12:12.965Z,63.80
2019-05-25T01:14:41.928Z,63.30
2019-05-25T01:17:10.879Z,63.60
2019-05-25T01:19:39.750Z,65.80
2019-05-25T01:22:08.691Z,66.00
2019-05-25T01:24:44.393Z,66.10
2019-05-25T01:27:08.374Z,66.50
2019-05-25T01:29:37.314Z,67.80
2019-05-25T01:32:06.124Z,68.00
2019-05-25T01:34:34.988Z,68.10
2019-05-25T01:37:03.980Z,69.00
2019-05-25T01:39:32.851Z,68.60
2019-05-25T01:42:01.895Z,68.40
2019-05-25T01:44:30.892Z,69.10
2019-05-25T01:47:00.044Z,69.80
2019-05-25T01:49:28.945Z,70.60
2019-05-25T01:51:57.874Z,70.80
2019-05-25T01:54:27.015Z,70.80
2019-05-25T01:56:55.916Z,71.20
2019-05-25T01:59:24.847Z,72.30
2019-05-25T02:01:53.757Z,72.40
2019-05-25T02:04:22.744Z,73.00
2019-05-25T02:06:51.561Z,73.60
2019-05-25T02:09:20.370Z,74.60
2019-05-25T02:11:49.192Z,76.10
2019-05-25T02:14:18.081Z,76.80
2019-05-25T02:16:47.106Z,77.60
2019-05-25T02:19:16.025Z,78.60
2019-05-25T02:21:44.993Z,78.90
2019-05-25T02:24:13.953Z,79.70
2019-05-25T02:26:42.899Z,80.60
2019-05-25T02:29:11.826Z,81.00
2019-05-25T02:31:40.865Z,82.00
2019-05-25T02:34:09.863Z,82.30
2019-05-25T02:36:38.771Z,83.70
2019-05-25T02:39:07.967Z,84.50
2019-05-25T02:41:37.317Z,84.10
2019-05-25T02:44:06.570Z,84.40
2019-05-25T02:46:35.434Z,85.20
2019-05-25T02:49:04.682Z,86.20
2019-05-25T02:51:33.537Z,86.80
2019-05-25T02:54:02.385Z,87.40
2019-05-25T02:56:31.307Z,87.80
2019-05-25T02:59:00.298Z,88.50
2019-05-25T03:01:29.244Z,88.30
2019-05-25T03:03:58.175Z,91.50
2019-05-25T03:06:28.138Z,92.60
2019-05-25T03:08:58.036Z,93.30
2019-05-25T03:11:29.021Z,94.00
2019-05-25T03:13:59.353Z,95.00
2019-05-25T03:16:28.466Z,96.40
2019-05-25T03:18:57.510Z,97.80
2019-05-25T03:21:26.504Z,99.60
2019-05-25T03:23:55.602Z,99.90
2019-05-25T03:26:24.999Z,99.90
2019-05-25T03:28:54.004Z,99.90
2019-05-25T03:31:23.159Z,99.90
2019-05-25T03:33:52.154Z,99.90
2019-05-25T03:36:21.239Z,99.90
2019-05-25T03:38:50.172Z,99.90
2019-05-25T03:41:19.242Z,99.90
2019-05-25T03:43:48.293Z,99.90
2019-05-25T03:46:17.233Z,99.90
2019-05-25T03:48:48.616Z,99.90
2019-05-25T03:51:17.675Z,99.90
2019-05-25T03:53:47.061Z,99.90
2019-05-25T03:56:16.107Z,99.90
2019-05-25T03:58:45.316Z,99.90
2019-05-25T04:01:14.282Z,99.90
2019-05-25T04:03:43.100Z,99.90
2019-05-25T04:06:11.880Z,99.90
2019-05-25T04:08:40.733Z,99.90
2019-05-25T04:11:09.585Z,99.90
2019-05-25T04:13:38.480Z,99.90
2019-05-25T04:16:07.611Z,99.90
2019-05-25T04:18:36.504Z,99.90
2019-05-25T04:21:05.432Z,99.90
2019-05-25T04:23:34.271Z,99.90
2019-05-25T04:26:03.860Z,99.90
2019-05-25T04:28:32.788Z,99.90
2019-05-25T04:31:01.668Z,99.90
2019-05-25T04:33:30.636Z,99.90
2019-05-25T04:35:59.514Z,99.90
2019-05-25T04:38:28.325Z,99.90
2019-05-25T04:40:57.183Z,99.90
2019-05-25T04:43:26.067Z,99.90
2019-05-25T04:45:55.004Z,99.90
2019-05-25T04:48:23.872Z,99.90
2019-05-25T04:50:52.826Z,99.90
2019-05-25T04:53:21.886Z,99.90
2019-05-25T04:55:50.814Z,99.90
2019-05-25T04:58:19.860Z,99.90
2019-05-25T05:00:48.992Z,99.90
2019-05-25T05:03:17.994Z,99.90
2019-05-25T05:05:47.181Z,99.90
2019-05-25T05:08:16.232Z,99.90
2019-05-25T05:10:45.077Z,99.90
2019-05-25T05:13:14.117Z,99.90
2019-05-25T05:15:43.002Z,99.90
2019-05-25T05:18:11.850Z,99.90
2019-05-25T05:20:40.718Z,99.90
2019-05-25T05:23:09.471Z,99.90
2019-05-25T05:25:38.392Z,99.90
2019-05-25T05:28:07.218Z,99.90
2019-05-25T05:30:36.287Z,99.90
2019-05-25T05:33:06.111Z,99.90
2019-05-25T05:35:38.838Z,99.90
2019-05-25T05:38:07.109Z,99.90
2019-05-25T05:40:37.828Z,99.90
2019-05-25T05:43:11.363Z,99.90
2019-05-25T05:45:42.356Z,99.90
2019-05-25T05:48:12.911Z,99.90
2019-05-25T05:50:42.419Z,99.90
2019-05-25T05:53:11.279Z,99.90
2019-05-25T05:55:40.087Z,99.90
2019-05-25T05:58:09.212Z,99.90
2019-05-25T06:00:38.278Z,99.90
2019-05-25T06:03:07.501Z,99.90
2019-05-25T06:05:36.509Z,99.90
2019-05-25T06:08:05.389Z,99.90
2019-05-25T06:10:34.480Z,99.90
2019-05-25T06:13:03.413Z,99.90
2019-05-25T06:15:32.264Z,99.90
2019-05-25T06:18:01.106Z,99.90
2019-05-25T06:20:29.941Z,99.90
2019-05-25T06:22:58.903Z,99.90
2019-05-25T06:25:27.772Z,99.90
2019-05-25T06:27:56.624Z,99.90
2019-05-25T06:30:25.643Z,99.90
2019-05-25T06:32:54.463Z,99.90
2019-05-25T06:35:23.494Z,99.90
2019-05-25T06:37:52.439Z,99.90
2019-05-25T06:40:21.577Z,99.90
2019-05-25T06:42:50.541Z,99.90
2019-05-25T06:45:19.535Z,99.90
2019-05-25T06:47:48.492Z,99.90
2019-05-25T06:50:17.789Z,99.90
2019-05-25T06:52:46.930Z,99.90
2019-05-25T06:55:15.915Z,99.90
2019-05-25T06:57:44.843Z,99.90
2019-05-25T07:00:14.029Z,99.90
2019-05-25T07:02:43.043Z,99.90
2019-05-25T07:05:12.236Z,99.90
2019-05-25T07:07:41.081Z,99.90
2019-05-25T07:10:10.793Z,99.90
2019-05-25T07:12:39.714Z,99.90
2019-05-25T07:15:09.343Z,99.90
2019-05-25T07:17:38.372Z,99.90
2019-05-25T07:20:08.098Z,99.90
2019-05-25T07:22:37.263Z,99.90
2019-05-25T07:25:09.375Z,99.90
2019-05-25T07:27:38.369Z,99.90
2019-05-25T07:30:07.951Z,99.90
2019-05-25T07:32:36.890Z,99.90
2019-05-25T07:35:06.168Z,99.90
2019-05-25T07:37:35.082Z,99.90
2019-05-25T07:40:04.326Z,99.90
2019-05-25T07:42:34.601Z,99.90
2019-05-25T07:45:04.133Z,99.90
2019-05-25T07:47:33.507Z,99.90
2019-05-25T07:50:02.384Z,99.90
2019-05-25T07:52:31.299Z,99.90
2019-05-25T07:55:00.218Z,99.90
2019-05-25T07:57:29.172Z,99.90
2019-05-25T07:59:58.325Z,99.90
2019-05-25T08:02:27.226Z,99.90
2019-05-25T08:04:56.226Z,99.90
2019-05-25T08:07:25.255Z,99.90
2019-05-25T08:09:54.124Z,99.90
2019-05-25T08:12:23.044Z,99.90
2019-05-25T08:14:51.815Z,99.90
2019-05-25T08:17:20.672Z,99.90
2019-05-25T08:19:49.722Z,99.90
2019-05-25T08:22:19.413Z,99.90
2019-05-25T08:24:48.332Z,99.90
2019-05-25T08:27:17.313Z,99.90
2019-05-25T08:29:46.215Z,99.90
2019-05-25T08:32:15.306Z,99.90
2019-05-25T08:34:45.544Z,99.90
2019-05-25T08:37:14.566Z,99.90
2019-05-25T08:39:43.806Z,99.90
2019-05-25T08:42:12.658Z,99.90
2019-05-25T08:44:41.819Z,99.90
2019-05-25T08:47:10.992Z,99.90
2019-05-25T08:49:40.160Z,99.90
2019-05-25T08:52:09.335Z,99.90
2019-05-25T08:54:38.364Z,99.90
2019-05-25T08:57:07.375Z,99.90
2019-05-25T08:59:36.243Z,99.90
2019-05-25T09:02:05.358Z,99.90
2019-05-25T09:04:34.216Z,99.90
2019-05-25T09:07:03.059Z,99.90
2019-05-25T09:09:31.891Z,99.90
2019-05-25T09:12:02.334Z,99.90
2019-05-25T09:14:31.515Z,99.90
2019-05-25T09:17:00.425Z,99.90
2019-05-25T09:19:29.304Z,99.90
2019-05-25T09:22:02.488Z,99.90
2019-05-25T09:24:28.848Z,99.90
2019-05-25T09:26:57.784Z,99.90
2019-05-25T09:29:26.651Z,99.90
2019-05-25T09:31:55.539Z,99.90
2019-05-25T09:34:24.487Z,99.90
2019-05-25T09:36:53.628Z,99.90
2019-05-25T09:39:22.702Z,99.90
2019-05-25T09:41:51.980Z,99.90
2019-05-25T09:44:21.045Z,99.90
2019-05-25T09:46:50.072Z,99.90
2019-05-25T09:49:19.276Z,99.90
2019-05-25T09:51:50.107Z,99.90
2019-05-25T09:54:19.332Z,99.90
2019-05-25T09:56:48.328Z,99.90
2019-05-25T09:59:20.208Z,99.90
2019-05-25T10:01:48.055Z,99.90
2019-05-25T10:04:17.174Z,99.90
2019-05-25T10:06:46.245Z,99.90
2019-05-25T10:09:15.499Z,99.90
2019-05-25T10:11:44.767Z,99.90
2019-05-25T10:14:13.704Z,99.90
2019-05-25T10:16:42.582Z,99.90
2019-05-25T10:19:11.492Z,99.90
2019-05-25T10:21:40.393Z,99.90
2019-05-25T10:24:09.376Z,99.90
2019-05-25T10:26:38.209Z,99.90
2019-05-25T10:29:07.115Z,99.90
2019-05-25T10:31:36.004Z,99.90
2019-05-25T10:34:05.311Z,99.90
2019-05-25T10:36:34.352Z,99.90
2019-05-25T10:39:04.323Z,99.90
2019-05-25T10:41:37.121Z,99.90
2019-05-25T10:44:06.136Z,99.90
2019-05-25T10:46:35.061Z,99.90
2019-05-25T10:49:04.262Z,99.90
2019-05-25T10:51:33.255Z,99.90
2019-05-25T10:54:02.291Z,99.90
2019-05-25T10:56:31.204Z,99.90
2019-05-25T10:59:00.360Z,99.90
2019-05-25T11:01:29.407Z,99.90
2019-05-25T11:03:58.527Z,99.90
2019-05-25T11:06:27.675Z,99.90
2019-05-25T11:08:56.702Z,99.90
2019-05-25T11:11:25.794Z,99.90
2019-05-25T11:13:54.900Z,99.90
2019-05-25T11:16:24.224Z,99.90
2019-05-25T11:18:53.401Z,99.90
2019-05-25T11:21:22.426Z,99.90
2019-05-25T11:23:51.316Z,99.90
2019-05-25T11:26:20.292Z,99.90
2019-05-25T11:28:49.107Z,99.90
2019-05-25T11:31:19.344Z,99.90
2019-05-25T11:33:48.198Z,99.90
2019-05-25T11:36:17.051Z,99.90
2019-05-25T11:38:45.963Z,99.90
2019-05-25T11:41:14.895Z,99.90
2019-05-25T11:43:43.685Z,99.90
2019-05-25T11:46:12.665Z,99.90
2019-05-25T11:48:41.743Z,99.90
2019-05-25T11:51:10.733Z,99.90
2019-05-25T11:53:39.709Z,99.90
2019-05-25T11:56:08.759Z,99.90
2019-05-25T11:58:46.917Z,99.90
2019-05-25T12:01:08.468Z,99.90
2019-05-25T12:03:37.760Z,99.90
2019-05-25T12:06:07.163Z,99.90
2019-05-25T12:08:36.157Z,99.90
2019-05-25T12:11:05.269Z,99.90
2019-05-25T12:13:34.359Z,99.90
2019-05-25T12:16:03.613Z,99.90
2019-05-25T12:18:32.470Z,99.90
2019-05-25T12:21:01.302Z,99.90
2019-05-25T12:23:30.121Z,99.90
2019-05-25T12:25:58.993Z,99.90
2019-05-25T12:28:28.168Z,99.90
2019-05-25T12:30:57.154Z,99.90
2019-05-25T12:33:26.028Z,99.90
2019-05-25T12:35:55.354Z,99.90
2019-05-25T12:38:24.408Z,99.90
2019-05-25T12:40:54.292Z,99.90
2019-05-25T12:43:23.448Z,99.90
2019-05-25T12:45:55.295Z,99.90
2019-05-25T12:48:24.290Z,99.90
2019-05-25T12:50:53.367Z,99.90
2019-05-25T12:53:22.298Z,99.90
2019-05-25T12:55:51.337Z,99.90
2019-05-25T12:58:23.641Z,99.90
2019-05-25T13:00:56.011Z,99.90
2019-05-25T13:03:22.141Z,99.90
2019-05-25T13:05:51.555Z,99.90
2019-05-25T13:08:20.397Z,99.90
2019-05-25T13:10:49.353Z,99.90
2019-05-25T13:13:18.265Z,99.90
2019-05-25T13:15:47.229Z,99.90
2019-05-25T13:18:16.244Z,99.90
2019-05-25T13:20:45.345Z,99.90
2019-05-25T13:23:14.171Z,99.90
2019-05-25T13:25:43.050Z,99.90
2019-05-25T13:28:12.296Z,99.90
2019-05-25T13:30:41.415Z,99.90
2019-05-25T13:33:10.360Z,99.90
2019-05-25T13:35:39.412Z,99.90
2019-05-25T13:38:08.348Z,99.90
2019-05-25T13:40:37.309Z,99.90
2019-05-25T13:43:06.189Z,99.90
2019-05-25T13:45:35.113Z,99.90
2019-05-25T13:48:04.041Z,99.90
2019-05-25T13:50:33.180Z,99.90
2019-05-25T13:53:02.018Z,99.90
2019-05-25T13:55:31.305Z,99.90
2019-05-25T13:58:00.289Z,99.90
2019-05-25T14:00:29.374Z,99.90
2019-05-25T14:02:58.450Z,99.90
2019-05-25T14:05:27.486Z,99.90
2019-05-25T14:07:58.424Z,99.90
2019-05-25T14:10:28.663Z,99.90
2019-05-25T14:12:57.777Z,99.90
2019-05-25T14:15:26.758Z,99.90
2019-05-25T14:17:56.089Z,99.90
2019-05-25T14:20:25.191Z,99.90
2019-05-25T14:22:53.976Z,99.90
2019-05-25T14:25:23.184Z,99.90
2019-05-25T14:27:52.194Z,99.90
2019-05-25T14:30:21.993Z,99.90
2019-05-25T14:32:50.962Z,99.90
2019-05-25T14:35:19.897Z,99.90
2019-05-25T14:37:49.196Z,99.90
2019-05-25T14:40:18.222Z,99.90
2019-05-25T14:42:47.189Z,99.90
2019-05-25T14:45:16.329Z,99.90
2019-05-25T14:47:45.497Z,99.90
2019-05-25T14:50:14.698Z,99.90
2019-05-25T14:52:43.811Z,99.90
2019-05-25T14:55:12.843Z,99.90
2019-05-25T14:57:41.721Z,99.90
2019-05-25T15:00:12.843Z,99.90
2019-05-25T15:02:42.612Z,99.90
2019-05-25T15:05:13.040Z,99.90
2019-05-25T15:07:42.235Z,99.90
2019-05-25T15:10:11.358Z,99.90
2019-05-25T15:12:40.359Z,99.90
2019-05-25T15:15:10.648Z,99.90
2019-05-25T15:17:42.722Z,99.90
2019-05-25T15:20:10.963Z,99.90
2019-05-25T15:22:39.812Z,99.90
2019-05-25T15:25:09.152Z,99.90
2019-05-25T15:27:38.051Z,99.90
2019-05-25T15:30:08.062Z,99.90
2019-05-25T15:32:37.207Z,99.90
2019-05-25T15:35:07.025Z,99.90
2019-05-25T15:37:35.981Z,99.90
2019-05-25T15:40:05.736Z,99.90
2019-05-25T15:42:34.645Z,99.90
2019-05-25T15:45:03.739Z,99.90
2019-05-25T15:47:32.731Z,99.90
2019-05-25T15:50:01.570Z,99.90
2019-05-25T15:52:43.493Z,99.90
2019-05-25T15:55:13.869Z,99.90
2019-05-25T15:57:43.290Z,99.90
2019-05-25T16:00:13.902Z,99.90
2019-05-25T16:02:43.017Z,99.90
2019-05-25T16:05:12.129Z,99.90
2019-05-25T16:07:44.890Z,99.90
2019-05-25T16:10:13.829Z,99.90
2019-05-25T16:12:42.987Z,99.90
2019-05-25T16:15:14.643Z,99.90
2019-05-25T16:17:43.479Z,99.90
2019-05-25T16:20:14.015Z,99.90
2019-05-25T16:22:43.065Z,99.90
2019-05-25T16:25:11.995Z,99.90
2019-05-25T16:27:40.915Z,99.90
2019-05-25T16:30:09.887Z,99.90
2019-05-25T16:33:09.829Z,99.90
2019-05-25T16:35:09.935Z,99.90
2019-05-25T16:37:39.254Z,99.90
2019-05-25T16:40:09.385Z,99.90
2019-05-25T16:42:38.274Z,99.90
2019-05-25T16:45:09.136Z,99.90
2019-05-25T16:47:38.088Z,99.90
2019-05-25T16:50:07.508Z,99.90
2019-05-25T16:52:36.433Z,99.90
2019-05-25T16:55:05.519Z,99.90
2019-05-25T16:57:34.690Z,99.90
2019-05-25T17:00:03.892Z,99.90
2019-05-25T17:02:32.951Z,99.90
2019-05-25T17:05:02.191Z,99.90
2019-05-25T17:07:31.171Z,99.90
2019-05-25T17:10:00.330Z,99.90
2019-05-25T17:12:29.715Z,99.90
2019-05-25T17:14:58.856Z,99.90
2019-05-25T17:17:27.740Z,99.90
2019-05-25T17:19:56.627Z,99.90
2019-05-25T17:22:25.477Z,99.90
2019-05-25T17:24:54.322Z,99.90
2019-05-25T17:27:23.250Z,99.90
2019-05-25T17:29:52.247Z,99.90
2019-05-25T17:32:21.268Z,99.90
2019-05-25T17:34:50.491Z,99.90
2019-05-25T17:37:19.818Z,99.90
2019-05-25T17:39:48.783Z,99.90
2019-05-25T17:42:17.628Z,99.90
2019-05-25T17:44:46.722Z,99.90
2019-05-25T17:47:15.704Z,99.90
2019-05-25T17:49:44.995Z,99.90
2019-05-25T17:52:15.431Z,99.90
2019-05-25T17:54:44.473Z,99.90
2019-05-25T17:57:13.401Z,99.90
2019-05-25T17:59:42.332Z,99.90
2019-05-25T18:02:11.392Z,99.90
2019-05-25T18:04:40.326Z,99.90
2019-05-25T18:07:09.303Z,99.90
2019-05-25T18:09:38.234Z,99.90
2019-05-25T18:12:07.218Z,99.90
2019-05-25T18:14:37.401Z,99.90
2019-05-25T18:17:06.442Z,99.90
2019-05-25T18:19:35.370Z,99.90
2019-05-25T18:22:04.534Z,99.90
2019-05-25T18:24:33.572Z,99.90
2019-05-25T18:27:02.516Z,99.90
2019-05-25T18:29:31.357Z,99.90
2019-05-25T18:32:00.257Z,99.70
2019-05-25T18:34:29.623Z,99.90
2019-05-25T18:36:58.711Z,99.90
2019-05-25T18:39:27.505Z,99.90
2019-05-25T18:41:56.575Z,99.90
2019-05-25T18:44:25.528Z,99.50
2019-05-25T18:46:54.569Z,99.70
2019-05-25T18:49:23.659Z,99.90
2019-05-25T18:51:54.772Z,99.90
2019-05-25T18:54:23.894Z,99.90
2019-05-25T18:56:53.134Z,99.90
2019-05-25T18:59:22.047Z,99.90
2019-05-25T19:01:51.230Z,99.90
2019-05-25T19:04:20.144Z,99.90
2019-05-25T19:06:49.170Z,99.90
2019-05-25T19:09:18.126Z,99.90
2019-05-25T19:11:51.874Z,99.90
2019-05-25T19:14:20.937Z,99.90
2019-05-25T19:16:49.950Z,99.90
2019-05-25T19:19:18.989Z,99.90
2019-05-25T19:21:47.968Z,99.90
2019-05-25T19:24:17.195Z,99.90
2019-05-25T19:26:46.184Z,99.90
2019-05-25T19:29:15.156Z,99.90
2019-05-25T19:31:44.021Z,99.90
2019-05-25T19:34:12.938Z,99.90
2019-05-25T19:36:41.843Z,99.90
2019-05-25T19:39:10.865Z,99.90
2019-05-25T19:41:39.803Z,99.90
2019-05-25T19:44:08.824Z,99.90
2019-05-25T19:46:37.753Z,99.90
2019-05-25T19:49:06.833Z,99.90
2019-05-25T19:51:35.780Z,99.90
2019-05-25T19:54:04.852Z,99.90
2019-05-25T19:56:33.914Z,99.90
2019-05-25T19:59:03.233Z,99.90
2019-05-25T20:01:33.151Z,99.90
2019-05-25T20:04:02.159Z,99.90
2019-05-25T20:06:33.523Z,99.90
2019-05-25T20:09:02.685Z,99.90
2019-05-25T20:11:31.780Z,99.90
2019-05-25T20:14:01.107Z,99.90
2019-05-25T20:16:30.189Z,99.90
2019-05-25T20:18:59.207Z,99.90
2019-05-25T20:21:28.304Z,99.90
2019-05-25T20:23:57.493Z,99.90
2019-05-25T20:26:26.539Z,99.90
2019-05-25T20:28:55.497Z,99.90
2019-05-25T20:31:24.543Z,99.90
2019-05-25T20:33:53.441Z,99.90
2019-05-25T20:36:22.439Z,99.90
2019-05-25T20:38:51.722Z,99.90
2019-05-25T20:41:20.620Z,99.90
2019-05-25T20:43:49.635Z,99.90
2019-05-25T20:46:18.558Z,99.90
2019-05-25T20:48:47.483Z,99.90
2019-05-25T20:51:16.442Z,99.90
2019-05-25T20:53:45.327Z,99.90
2019-05-25T20:56:14.900Z,99.90
2019-05-25T20:58:44.026Z,99.90
2019-05-25T21:01:13.014Z,99.90
2019-05-25T21:03:42.118Z,99.90
2019-05-25T21:06:11.139Z,99.90
2019-05-25T21:08:40.065Z,99.90
2019-05-25T21:11:09.057Z,99.90
2019-05-25T21:13:38.102Z,99.90
2019-05-25T21:16:07.000Z,99.90
2019-05-25T21:18:35.908Z,99.90
2019-05-25T21:21:05.081Z,99.90
2019-05-25T21:23:33.959Z,99.90
2019-05-25T21:26:22.188Z,99.90
2019-05-25T21:28:51.242Z,99.90
2019-05-25T21:31:23.577Z,99.90
2019-05-25T21:33:50.951Z,99.90
2019-05-25T21:36:20.022Z,99.90
2019-05-25T21:38:49.306Z,99.90
2019-05-25T21:41:18.284Z,99.90
2019-05-25T21:43:47.198Z,99.90
2019-05-25T21:46:16.044Z,99.90
2019-05-25T21:48:45.079Z,99.90
2019-05-25T21:51:14.008Z,99.90
2019-05-25T21:53:42.944Z,99.90
2019-05-25T21:56:11.834Z,99.90
2019-05-25T21:58:40.876Z,99.90
2019-05-25T22:01:09.965Z,99.90
2019-05-25T22:03:38.947Z,99.90
2019-05-25T22:06:23.149Z,99.90
2019-05-25T22:08:38.807Z,99.90
2019-05-25T22:11:07.811Z,99.90
2019-05-25T22:13:36.770Z,99.90
2019-05-25T22:16:05.680Z,99.90
2019-05-25T22:18:34.565Z,99.90
2019-05-25T22:21:03.477Z,99.90
2019-05-25T22:23:32.507Z,99.90
2019-05-25T22:26:01.424Z,99.90
2019-05-25T22:28:43.804Z,99.90
2019-05-25T22:31:00.873Z,99.90
2019-05-25T22:33:29.768Z,99.90
2019-05-25T22:35:58.705Z,99.90
2019-05-25T22:38:27.560Z,99.90
2019-05-25T22:40:56.487Z,99.90
2019-05-25T22:43:25.647Z,99.90
2019-05-25T22:45:54.579Z,99.90
2019-05-25T22:48:23.471Z,99.90
2019-05-25T22:50:52.410Z,99.90
2019-05-25T22:53:21.404Z,99.90
2019-05-25T22:55:50.400Z,99.90
2019-05-25T22:58:19.307Z,99.90
2019-05-25T23:00:48.137Z,99.90
2019-05-25T23:03:17.263Z,99.90
2019-05-25T23:05:46.334Z,99.90
2019-05-25T23:08:15.368Z,99.90
2019-05-25T23:10:44.324Z,99.90
2019-05-25T23:13:13.246Z,99.90
2019-05-25T23:15:42.112Z,99.90
2019-05-25T23:18:10.954Z,99.90
2019-05-25T23:20:39.916Z,99.90
2019-05-25T23:23:08.741Z,99.90
2019-05-25T23:25:37.563Z,99.90
2019-05-25T23:28:06.468Z,99.90
2019-05-25T23:30:35.346Z,99.90
2019-05-25T23:33:04.340Z,99.90
2019-05-25T23:35:33.133Z,99.90
2019-05-25T23:38:03.670Z,99.90
2019-05-25T23:40:32.730Z,99.90
2019-05-25T23:43:01.574Z,99.90
2019-05-25T23:45:30.586Z,99.90
2019-05-25T23:47:59.512Z,99.90
2019-05-25T23:50:28.479Z,99.90
2019-05-25T23:52:57.303Z,99.90
2019-05-25T23:55:26.901Z,99.90
2019-05-25T23:57:55.857Z,99.90
